Time;durP1;ratioP1;P1;durP2;ratioP2;P2;SDS_P1;SDS_P2;PMS_P1;PMS_P2;Temp;Humidity;BMP_temperature;BMP_pressure;BME280_temperature;BME280_humidity;BME280_pressure;Samples;Min_cycle;Max_cycle;Signal;HPM_P1;HPM_P2
2022/09/10 00:00:35;;;;;;;;;;;15.70;99.90;;;;;;5056992;28;20335;-58
2022/09/10 00:03:01;;;;;;;;;;;15.70;99.90;;;;;;5072990;28;19908;-58
2022/09/10 00:05:26;;;;;;;;;;;15.60;99.90;;;;;;5057015;28;20003;-59
2022/09/10 00:07:52;;;;;;;;;;;15.70;99.90;;;;;;5057583;28;19935;-59
2022/09/10 00:10:18;;;;;;;;;;;15.70;99.90;;;;;;5058154;28;19912;-59
2022/09/10 00:12:47;;;;;;;;;;;15.70;99.90;;;;;;5060246;28;19910;-59
2022/09/10 00:15:13;;;;;;;;;;;15.70;99.90;;;;;;5060244;28;19925;-58
2022/09/10 00:17:39;;;;;;;;;;;15.80;99.90;;;;;;5060863;28;19995;-59
2022/09/10 00:20:04;;;;;;;;;;;15.80;99.90;;;;;;5060930;28;19948;-59
2022/09/10 00:22:32;;;;;;;;;;;15.90;99.90;;;;;;5060824;28;19916;-59
2022/09/10 00:24:58;;;;;;;;;;;15.90;99.90;;;;;;5060707;28;20003;-59
2022/09/10 00:27:24;;;;;;;;;;;15.90;99.90;;;;;;5061812;28;19920;-58
2022/09/10 00:29:51;;;;;;;;;;;16.00;99.90;;;;;;5060634;28;19919;-58
2022/09/10 00:32:16;;;;;;;;;;;15.90;99.90;;;;;;5060681;28;20165;-58
2022/09/10 00:34:42;;;;;;;;;;;15.80;99.90;;;;;;5060505;28;19920;-58
2022/09/10 00:37:08;;;;;;;;;;;15.80;99.90;;;;;;5061144;28;20376;-58
2022/09/10 00:39:34;;;;;;;;;;;15.80;99.90;;;;;;5076325;28;19908;-58
2022/09/10 00:41:59;;;;;;;;;;;15.80;99.90;;;;;;5060501;28;19909;-58
2022/09/10 00:44:40;;;;;;;;;;;15.80;99.90;;;;;;5059624;28;20192;-59
2022/09/10 00:47:10;;;;;;;;;;;15.90;99.90;;;;;;5059514;28;19908;-58
2022/09/10 00:49:37;;;;;;;;;;;16.00;99.90;;;;;;5060273;28;19908;-58
2022/09/10 00:52:03;;;;;;;;;;;16.00;99.90;;;;;;5060302;28;19974;-58
2022/09/10 00:54:30;;;;;;;;;;;16.00;99.90;;;;;;5059530;28;20200;-58
2022/09/10 00:56:58;;;;;;;;;;;16.10;99.90;;;;;;5060060;28;20011;-59
2022/09/10 00:59:25;;;;;;;;;;;16.00;99.90;;;;;;5076030;28;19909;-58
2022/09/10 01:01:51;;;;;;;;;;;16.00;99.90;;;;;;5059413;28;19962;-59
2022/09/10 01:04:16;;;;;;;;;;;16.00;99.90;;;;;;5060017;28;20007;-59
2022/09/10 01:06:44;;;;;;;;;;;16.00;99.90;;;;;;5060008;28;19913;-58
2022/09/10 01:09:10;;;;;;;;;;;16.00;99.90;;;;;;5059196;28;19913;-59
2022/09/10 01:11:51;;;;;;;;;;;15.90;99.90;;;;;;5075864;28;19909;-59
2022/09/10 01:14:36;;;;;;;;;;;15.90;99.90;;;;;;5075759;28;20203;-59
2022/09/10 01:17:17;;;;;;;;;;;16.00;99.90;;;;;;5059413;28;20008;-59
2022/09/10 01:20:01;;;;;;;;;;;16.00;99.90;;;;;;5075688;28;19959;-58
2022/09/10 01:22:31;;;;;;;;;;;15.90;99.90;;;;;;5058854;28;19919;-59
2022/09/10 01:25:29;;;;;;;;;;;16.00;99.90;;;;;;5058810;28;19909;-59
2022/09/10 01:27:58;;;;;;;;;;;16.00;99.90;;;;;;5026059;28;19916;-58
2022/09/10 01:30:30;;;;;;;;;;;16.10;99.90;;;;;;5059576;28;19920;-59
2022/09/10 01:33:03;;;;;;;;;;;16.10;99.90;;;;;;5075803;28;19909;-59
2022/09/10 01:35:35;;;;;;;;;;;16.10;99.90;;;;;;5058699;28;19931;-58
2022/09/10 01:38:03;;;;;;;;;;;16.20;99.90;;;;;;5058576;28;19920;-59
2022/09/10 01:40:31;;;;;;;;;;;16.20;99.90;;;;;;5058639;28;19909;-58
2022/09/10 01:43:01;;;;;;;;;;;16.20;99.90;;;;;;5058849;28;20003;-58
2022/09/10 01:45:28;;;;;;;;;;;16.20;99.90;;;;;;5075133;28;19999;-59
2022/09/10 01:48:06;;;;;;;;;;;16.20;99.90;;;;;;5059781;28;19978;-59
2022/09/10 01:50:59;;;;;;;;;;;16.20;99.90;;;;;;5058381;28;19909;-58
2022/09/10 01:53:32;;;;;;;;;;;16.30;99.90;;;;;;5058780;28;19978;-59
2022/09/10 01:56:03;;;;;;;;;;;16.30;99.90;;;;;;5058255;28;19956;-57
2022/09/10 01:58:37;;;;;;;;;;;16.20;99.90;;;;;;5074721;28;19939;-59
2022/09/10 02:01:21;;;;;;;;;;;16.20;99.90;;;;;;5058214;28;19915;-58
2022/09/10 02:03:49;;;;;;;;;;;16.30;99.90;;;;;;5058847;28;19920;-58
2022/09/10 02:06:16;;;;;;;;;;;16.40;99.90;;;;;;5074737;28;20011;-59
2022/09/10 02:08:43;;;;;;;;;;;16.20;99.90;;;;;;5074645;28;20050;-58
2022/09/10 02:11:10;;;;;;;;;;;16.20;99.90;;;;;;5074665;28;20022;-58
2022/09/10 02:13:38;;;;;;;;;;;16.30;99.90;;;;;;5074584;28;19955;-60
2022/09/10 02:16:29;;;;;;;;;;;16.30;99.90;;;;;;5074575;28;19908;-60
2022/09/10 02:18:57;;;;;;;;;;;16.30;99.90;;;;;;5074505;28;19912;-60
2022/09/10 02:21:23;;;;;;;;;;;16.30;99.90;;;;;;5059223;28;19919;-59
2022/09/10 02:23:52;;;;;;;;;;;16.30;99.90;;;;;;5057730;28;19912;-59
2022/09/10 02:26:19;;;;;;;;;;;16.30;99.90;;;;;;5058480;28;20181;-58
2022/09/10 02:28:48;;;;;;;;;;;16.30;99.90;;;;;;5058707;28;19916;-59
2022/09/10 02:31:14;;;;;;;;;;;16.20;99.90;;;;;;5057637;28;19917;-59
2022/09/10 02:33:39;;;;;;;;;;;16.30;99.90;;;;;;5040475;28;19912;-59
2022/09/10 02:36:05;;;;;;;;;;;16.30;99.90;;;;;;5057546;28;19912;-59
2022/09/10 02:38:32;;;;;;;;;;;16.30;99.90;;;;;;5057537;28;19967;-60
2022/09/10 02:40:58;;;;;;;;;;;16.30;99.90;;;;;;5058257;28;19909;-59
2022/09/10 02:43:27;;;;;;;;;;;16.30;99.90;;;;;;5057453;28;19920;-60
2022/09/10 02:45:56;;;;;;;;;;;16.30;99.90;;;;;;5057322;28;19932;-60
2022/09/10 02:48:25;;;;;;;;;;;16.30;99.90;;;;;;5057984;28;19917;-58
2022/09/10 02:50:55;;;;;;;;;;;16.30;99.90;;;;;;5058191;28;19916;-59
2022/09/10 02:53:20;;;;;;;;;;;16.30;99.90;;;;;;5057300;28;20003;-60
2022/09/10 02:55:49;;;;;;;;;;;16.20;99.90;;;;;;5057194;28;19966;-60
2022/09/10 02:58:15;;;;;;;;;;;16.10;99.90;;;;;;5057795;28;19935;-59
2022/09/10 03:00:41;;;;;;;;;;;16.00;99.90;;;;;;5057841;28;19908;-60
2022/09/10 03:03:07;;;;;;;;;;;16.10;99.90;;;;;;5057840;28;19912;-60
2022/09/10 03:05:37;;;;;;;;;;;16.00;99.90;;;;;;5057004;28;20193;-59
2022/09/10 03:08:07;;;;;;;;;;;16.10;99.90;;;;;;5074356;28;19928;-60
2022/09/10 03:10:34;;;;;;;;;;;16.10;99.90;;;;;;5056854;28;19967;-60
2022/09/10 03:13:00;;;;;;;;;;;16.10;99.90;;;;;;5058268;28;19908;-60
2022/09/10 03:15:26;;;;;;;;;;;16.10;99.90;;;;;;5073452;28;19913;-60
2022/09/10 03:17:51;;;;;;;;;;;16.10;99.90;;;;;;5057592;28;19909;-60
2022/09/10 03:20:20;;;;;;;;;;;16.10;99.90;;;;;;5056800;28;20193;-60
2022/09/10 03:22:46;;;;;;;;;;;16.10;99.90;;;;;;5056809;28;19917;-57
2022/09/10 03:25:14;;;;;;;;;;;16.00;99.90;;;;;;5057435;28;19971;-58
2022/09/10 03:27:40;;;;;;;;;;;16.10;99.90;;;;;;5057352;28;20026;-58
2022/09/10 03:30:07;;;;;;;;;;;16.10;99.90;;;;;;5056602;28;20335;-58
2022/09/10 03:32:33;;;;;;;;;;;16.00;99.90;;;;;;5056650;28;19919;-58
2022/09/10 03:34:59;;;;;;;;;;;16.10;99.90;;;;;;5056528;28;19912;-58
2022/09/10 03:37:25;;;;;;;;;;;16.00;99.90;;;;;;5056537;28;19917;-60
2022/09/10 03:39:51;;;;;;;;;;;16.00;99.90;;;;;;5056439;28;19920;-59
2022/09/10 03:42:17;;;;;;;;;;;16.10;99.90;;;;;;5056512;28;20259;-59
2022/09/10 03:44:43;;;;;;;;;;;16.10;99.90;;;;;;5055552;28;19909;-58
2022/09/10 03:47:10;;;;;;;;;;;16.10;99.90;;;;;;5056388;28;20356;-60
2022/09/10 03:49:36;;;;;;;;;;;16.10;99.90;;;;;;5057168;28;20196;-59
2022/09/10 03:52:02;;;;;;;;;;;16.20;99.90;;;;;;5056472;28;20289;-60
2022/09/10 03:54:30;;;;;;;;;;;16.20;99.90;;;;;;5056557;28;20004;-62
2022/09/10 03:56:56;;;;;;;;;;;16.20;99.90;;;;;;5057033;28;20241;-59
2022/09/10 03:59:21;;;;;;;;;;;16.30;99.90;;;;;;5057335;28;19913;-58
2022/09/10 04:01:47;;;;;;;;;;;16.20;99.90;;;;;;5056353;28;19966;-59
2022/09/10 04:04:13;;;;;;;;;;;16.20;99.90;;;;;;5056979;28;19947;-59
2022/09/10 04:06:39;;;;;;;;;;;16.20;99.90;;;;;;5056279;28;19912;-59
2022/09/10 04:09:05;;;;;;;;;;;16.30;99.90;;;;;;5056890;28;19928;-58
2022/09/10 04:11:31;;;;;;;;;;;16.30;99.90;;;;;;5056188;28;19917;-58
2022/09/10 04:13:57;;;;;;;;;;;16.50;99.90;;;;;;5056229;28;19912;-58
2022/09/10 04:16:23;;;;;;;;;;;16.50;99.90;;;;;;5056165;28;19913;-61
2022/09/10 04:18:49;;;;;;;;;;;16.50;99.90;;;;;;5057212;28;19904;-59
2022/09/10 04:21:16;;;;;;;;;;;16.50;99.90;;;;;;5072774;28;19909;-60
2022/09/10 04:23:44;;;;;;;;;;;16.40;99.90;;;;;;5024028;28;20344;-58
2022/09/10 04:26:11;;;;;;;;;;;16.40;99.90;;;;;;5056100;28;20189;-59
2022/09/10 04:28:37;;;;;;;;;;;16.40;99.90;;;;;;5072711;28;19909;-59
2022/09/10 04:31:04;;;;;;;;;;;16.50;99.90;;;;;;5056978;28;19970;-59
2022/09/10 04:33:32;;;;;;;;;;;16.50;99.90;;;;;;5072819;28;20007;-57
2022/09/10 04:35:59;;;;;;;;;;;16.30;99.90;;;;;;5056025;28;20213;-60
2022/09/10 04:38:26;;;;;;;;;;;16.30;99.90;;;;;;5057024;28;19927;-58
2022/09/10 04:40:52;;;;;;;;;;;16.20;99.90;;;;;;5072737;28;20222;-58
2022/09/10 04:43:18;;;;;;;;;;;16.20;99.90;;;;;;5055947;28;19908;-59
2022/09/10 04:45:44;;;;;;;;;;;16.30;99.90;;;;;;5055799;28;19913;-58
2022/09/10 04:48:11;;;;;;;;;;;16.20;99.90;;;;;;5055680;28;20013;-58
2022/09/10 04:50:40;;;;;;;;;;;16.20;99.90;;;;;;5055854;28;19920;-59
2022/09/10 04:53:11;;;;;;;;;;;16.10;99.90;;;;;;5040174;28;19909;-56
2022/09/10 04:55:38;;;;;;;;;;;16.10;99.90;;;;;;5057247;28;19912;-58
2022/09/10 04:58:05;;;;;;;;;;;16.30;99.90;;;;;;5075891;28;19948;-58
2022/09/10 05:00:31;;;;;;;;;;;16.30;99.90;;;;;;5059294;28;19913;-58
2022/09/10 05:02:57;;;;;;;;;;;16.30;99.90;;;;;;5059316;28;19982;-58
2022/09/10 05:05:23;;;;;;;;;;;16.20;99.90;;;;;;5059300;28;19974;-59
2022/09/10 05:07:49;;;;;;;;;;;16.10;99.90;;;;;;5059961;28;20031;-58
2022/09/10 05:10:14;;;;;;;;;;;16.10;99.90;;;;;;5059101;28;20315;-58
2022/09/10 05:12:40;;;;;;;;;;;16.00;99.90;;;;;;5059201;28;20295;-57
2022/09/10 05:15:06;;;;;;;;;;;16.00;99.90;;;;;;5075889;28;20337;-58
2022/09/10 05:17:32;;;;;;;;;;;16.00;99.90;;;;;;5059148;28;19928;-58
2022/09/10 05:19:59;;;;;;;;;;;15.90;99.90;;;;;;5075612;28;19936;-57
2022/09/10 05:22:25;;;;;;;;;;;16.00;99.90;;;;;;5075538;28;19960;-58
2022/09/10 05:24:50;;;;;;;;;;;16.00;99.90;;;;;;5058571;28;20172;-57
2022/09/10 05:27:16;;;;;;;;;;;16.00;99.90;;;;;;5058473;28;19913;-59
2022/09/10 05:29:43;;;;;;;;;;;16.00;99.90;;;;;;5058725;28;19999;-57
2022/09/10 05:32:09;;;;;;;;;;;16.00;99.90;;;;;;5058495;28;20235;-58
2022/09/10 05:34:35;;;;;;;;;;;15.90;99.90;;;;;;5059336;28;19916;-56
2022/09/10 05:37:01;;;;;;;;;;;15.90;99.90;;;;;;5059397;28;19913;-56
2022/09/10 05:39:27;;;;;;;;;;;15.90;99.90;;;;;;5058507;28;19947;-56
2022/09/10 05:41:54;;;;;;;;;;;15.80;99.90;;;;;;5058525;28;20208;-56
2022/09/10 05:44:20;;;;;;;;;;;15.80;99.90;;;;;;5058540;28;20233;-56
2022/09/10 05:46:47;;;;;;;;;;;15.80;99.90;;;;;;5058473;28;19924;-56
2022/09/10 05:49:14;;;;;;;;;;;15.90;99.90;;;;;;5058171;28;19916;-56
2022/09/10 05:51:40;;;;;;;;;;;15.90;99.90;;;;;;5058150;28;20200;-56
2022/09/10 05:54:07;;;;;;;;;;;15.90;99.90;;;;;;5059216;28;19923;-55
2022/09/10 05:56:33;;;;;;;;;;;15.90;99.90;;;;;;5057850;28;19948;-57
2022/09/10 05:59:02;;;;;;;;;;;15.90;99.90;;;;;;5041279;28;19928;-57
2022/09/10 06:01:28;;;;;;;;;;;15.90;99.90;;;;;;5057941;28;19942;-56
2022/09/10 06:03:53;;;;;;;;;;;16.10;99.90;;;;;;5058644;28;20278;-56
2022/09/10 06:06:20;;;;;;;;;;;16.10;99.90;;;;;;5058038;28;19923;-60
2022/09/10 06:08:53;;;;;;;;;;;16.00;99.90;;;;;;5057072;28;20170;-56
2022/09/10 06:11:33;;;;;;;;;;;16.20;99.90;;;;;;5075015;28;19912;-57
2022/09/10 06:13:59;;;;;;;;;;;16.00;99.90;;;;;;5058531;28;19913;-56
2022/09/10 06:16:24;;;;;;;;;;;16.00;99.90;;;;;;5057848;28;20295;-57
2022/09/10 06:18:53;;;;;;;;;;;16.10;99.90;;;;;;5057928;28;19920;-56
2022/09/10 06:21:21;;;;;;;;;;;16.00;99.90;;;;;;5058070;28;20228;-56
2022/09/10 06:23:55;;;;;;;;;;;16.10;99.90;;;;;;5057639;28;20199;-56
2022/09/10 06:26:24;;;;;;;;;;;16.10;99.90;;;;;;5057512;28;19939;-57
2022/09/10 06:28:55;;;;;;;;;;;16.00;99.90;;;;;;5057383;28;19917;-56
2022/09/10 06:31:22;;;;;;;;;;;16.00;99.90;;;;;;5041793;28;19943;-57
2022/09/10 06:33:49;;;;;;;;;;;16.10;99.90;;;;;;5057540;28;19908;-57
2022/09/10 06:36:18;;;;;;;;;;;16.10;99.90;;;;;;5057501;28;19909;-55
2022/09/10 06:38:44;;;;;;;;;;;16.10;99.90;;;;;;5057662;28;19913;-57
2022/09/10 06:41:12;;;;;;;;;;;16.00;99.90;;;;;;5057340;28;19938;-54
2022/09/10 06:43:45;;;;;;;;;;;15.90;99.90;;;;;;5073864;28;19908;-57
2022/09/10 06:46:22;;;;;;;;;;;15.80;99.90;;;;;;5057155;28;19913;-55
2022/09/10 06:49:05;;;;;;;;;;;15.80;99.90;;;;;;5056990;28;19923;-55
2022/09/10 06:51:33;;;;;;;;;;;15.90;99.90;;;;;;5058280;28;19916;-55
2022/09/10 06:54:01;;;;;;;;;;;16.00;99.90;;;;;;5057416;28;19922;-55
2022/09/10 06:56:27;;;;;;;;;;;16.00;99.90;;;;;;5057736;28;19919;-55
2022/09/10 06:58:53;;;;;;;;;;;16.10;99.90;;;;;;5056129;28;20011;-56
2022/09/10 07:01:22;;;;;;;;;;;16.10;99.90;;;;;;5056166;28;20013;-55
2022/09/10 07:03:58;;;;;;;;;;;16.10;99.90;;;;;;5056866;28;20188;-57
2022/09/10 07:06:26;;;;;;;;;;;16.10;99.90;;;;;;5056043;28;20022;-55
2022/09/10 07:08:57;;;;;;;;;;;16.10;99.90;;;;;;5056816;28;20273;-56
2022/09/10 07:11:25;;;;;;;;;;;16.10;99.90;;;;;;5056075;28;19919;-59
2022/09/10 07:13:53;;;;;;;;;;;16.00;99.90;;;;;;5072666;28;19920;-57
2022/09/10 07:16:25;;;;;;;;;;;15.90;99.90;;;;;;5056015;28;19912;-58
2022/09/10 07:18:56;;;;;;;;;;;15.90;99.90;;;;;;5055723;28;19970;-55
2022/09/10 07:21:27;;;;;;;;;;;15.80;99.90;;;;;;5056175;28;20346;-56
2022/09/10 07:23:59;;;;;;;;;;;15.90;99.90;;;;;;5056071;28;19974;-57
2022/09/10 07:26:26;;;;;;;;;;;15.90;99.90;;;;;;5055868;28;19916;-56
2022/09/10 07:28:52;;;;;;;;;;;15.90;99.90;;;;;;5056291;28;19908;-58
2022/09/10 07:31:19;;;;;;;;;;;15.80;99.90;;;;;;5055766;28;19917;-58
2022/09/10 07:33:47;;;;;;;;;;;15.90;99.90;;;;;;5072355;28;19920;-58
2022/09/10 07:36:13;;;;;;;;;;;15.90;99.90;;;;;;5039526;28;20184;-58
2022/09/10 07:38:39;;;;;;;;;;;15.80;99.90;;;;;;5055676;28;19908;-57
2022/09/10 07:41:08;;;;;;;;;;;15.90;99.90;;;;;;5055590;28;19909;-56
2022/09/10 07:43:35;;;;;;;;;;;15.90;99.90;;;;;;5039649;28;19924;-55
2022/09/10 07:46:01;;;;;;;;;;;16.00;99.90;;;;;;5072031;28;20292;-54
2022/09/10 07:48:27;;;;;;;;;;;16.10;99.90;;;;;;5055483;28;19917;-55
2022/09/10 07:50:59;;;;;;;;;;;16.10;99.90;;;;;;5055507;28;19912;-53
2022/09/10 07:53:26;;;;;;;;;;;16.10;99.90;;;;;;5055615;28;19913;-54
2022/09/10 07:56:02;;;;;;;;;;;16.30;99.90;;;;;;5072204;28;20276;-54
2022/09/10 07:58:34;;;;;;;;;;;16.20;99.90;;;;;;5013933;28;1209691;-58
2022/09/10 08:01:05;;;;;;;;;;;16.20;99.90;;;;;;5056107;28;19913;-56
2022/09/10 08:03:31;;;;;;;;;;;16.10;99.90;;;;;;5056175;28;19996;-55
2022/09/10 08:06:00;;;;;;;;;;;16.30;99.90;;;;;;5057275;28;19952;-52
2022/09/10 08:08:33;;;;;;;;;;;16.30;99.90;;;;;;5056112;28;20276;-55
2022/09/10 08:11:03;;;;;;;;;;;16.30;99.90;;;;;;5056818;28;19912;-53
2022/09/10 08:13:29;;;;;;;;;;;16.20;99.90;;;;;;5057540;28;19971;-53
2022/09/10 08:15:56;;;;;;;;;;;16.20;99.90;;;;;;5072746;28;19919;-54
2022/09/10 08:18:22;;;;;;;;;;;16.30;99.90;;;;;;5057443;28;19908;-55
2022/09/10 08:20:54;;;;;;;;;;;16.30;99.90;;;;;;5072775;28;20288;-53
2022/09/10 08:23:21;;;;;;;;;;;16.40;99.90;;;;;;5056140;28;20003;-53
2022/09/10 08:25:50;;;;;;;;;;;16.50;99.90;;;;;;5039656;28;19959;-56
2022/09/10 08:28:21;;;;;;;;;;;16.50;99.90;;;;;;5055904;28;19913;-55
2022/09/10 08:30:58;;;;;;;;;;;16.40;99.90;;;;;;5057084;28;19920;-57
2022/09/10 08:33:24;;;;;;;;;;;16.30;99.90;;;;;;5059933;28;19915;-56
2022/09/10 08:35:55;;;;;;;;;;;16.40;99.90;;;;;;5076568;28;20286;-56
2022/09/10 08:38:28;;;;;;;;;;;16.40;99.90;;;;;;5059823;28;19912;-57
2022/09/10 08:40:55;;;;;;;;;;;16.30;99.90;;;;;;5060570;28;19970;-52
2022/09/10 08:43:26;;;;;;;;;;;16.20;99.90;;;;;;5059650;28;19913;-55
2022/09/10 08:45:53;;;;;;;;;;;16.20;99.90;;;;;;5059801;28;19908;-56
2022/09/10 08:48:22;;;;;;;;;;;16.30;99.90;;;;;;5042967;28;20157;-56
2022/09/10 08:50:53;;;;;;;;;;;16.40;99.90;;;;;;5076257;28;20236;-55
2022/09/10 08:53:31;;;;;;;;;;;16.40;99.90;;;;;;5060321;28;19909;-55
2022/09/10 08:56:02;;;;;;;;;;;16.50;99.90;;;;;;5059551;28;19912;-54
2022/09/10 08:58:38;;;;;;;;;;;16.50;99.90;;;;;;5075782;28;20277;-58
2022/09/10 09:01:05;;;;;;;;;;;16.40;99.90;;;;;;5060411;28;19976;-53
2022/09/10 09:03:58;;;;;;;;;;;16.40;99.90;;;;;;5059246;28;19913;-53
2022/09/10 09:06:30;;;;;;;;;;;16.50;99.90;;;;;;5057688;28;19913;-61
2022/09/10 09:08:57;;;;;;;;;;;16.40;99.90;;;;;;5059066;28;19947;-54
2022/09/10 09:11:33;;;;;;;;;;;16.50;99.90;;;;;;5059940;28;19912;-53
2022/09/10 09:14:03;;;;;;;;;;;16.60;99.90;;;;;;5059161;28;20269;-54
2022/09/10 09:16:29;;;;;;;;;;;16.60;99.90;;;;;;5075675;28;20285;-56
2022/09/10 09:19:14;;;;;;;;;;;16.60;99.90;;;;;;5059851;28;19982;-53
2022/09/10 09:21:53;;;;;;;;;;;16.60;99.90;;;;;;5075494;28;19944;-55
2022/09/10 09:24:34;;;;;;;;;;;16.70;99.90;;;;;;5059040;28;19915;-55
2022/09/10 09:27:02;;;;;;;;;;;16.60;99.90;;;;;;5075730;28;19924;-53
2022/09/10 09:29:30;;;;;;;;;;;16.60;99.90;;;;;;5058807;28;19920;-56
2022/09/10 09:31:59;;;;;;;;;;;16.50;99.90;;;;;;5075570;28;20178;-56
2022/09/10 09:34:25;;;;;;;;;;;16.60;99.90;;;;;;5058896;28;19909;-51
2022/09/10 09:36:52;;;;;;;;;;;16.60;99.90;;;;;;5075520;28;19958;-55
2022/09/10 09:39:26;;;;;;;;;;;16.60;99.90;;;;;;5058644;28;19905;-53
2022/09/10 09:41:52;;;;;;;;;;;16.70;99.90;;;;;;5058582;28;19908;-54
2022/09/10 09:44:23;;;;;;;;;;;16.60;99.90;;;;;;5059377;28;19974;-54
2022/09/10 09:46:48;;;;;;;;;;;16.60;99.90;;;;;;5058661;28;20337;-52
2022/09/10 09:49:15;;;;;;;;;;;16.60;99.90;;;;;;5058481;28;19920;-54
2022/09/10 09:51:46;;;;;;;;;;;16.70;99.90;;;;;;5058535;28;19920;-55
2022/09/10 09:54:18;;;;;;;;;;;16.70;99.90;;;;;;5059604;28;20284;-52
2022/09/10 09:56:48;;;;;;;;;;;16.70;99.90;;;;;;5058431;28;20012;-56
2022/09/10 09:59:23;;;;;;;;;;;16.70;99.90;;;;;;5058911;28;19972;-55
2022/09/10 10:01:50;;;;;;;;;;;16.80;99.90;;;;;;5059710;28;20191;-53
2022/09/10 10:04:23;;;;;;;;;;;16.80;99.90;;;;;;5059499;28;19920;-53
2022/09/10 10:06:53;;;;;;;;;;;16.70;99.90;;;;;;5058962;28;19919;-54
2022/09/10 10:09:20;;;;;;;;;;;16.80;99.90;;;;;;5058846;28;19912;-58
2022/09/10 10:11:49;;;;;;;;;;;16.80;99.90;;;;;;5059490;28;19913;-54
2022/09/10 10:14:27;;;;;;;;;;;16.80;99.90;;;;;;5058810;28;20021;-54
2022/09/10 10:16:54;;;;;;;;;;;16.80;99.90;;;;;;5059120;28;19909;-53
2022/09/10 10:19:39;;;;;;;;;;;16.80;99.90;;;;;;5058698;28;19908;-53
2022/09/10 10:22:24;;;;;;;;;;;16.90;99.90;;;;;;5058783;28;20301;-52
2022/09/10 10:24:51;;;;;;;;;;;16.80;99.90;;;;;;5058623;28;19909;-53
2022/09/10 10:27:20;;;;;;;;;;;16.90;99.90;;;;;;5058447;28;19920;-54
2022/09/10 10:29:56;;;;;;;;;;;17.00;99.90;;;;;;5058373;28;20200;-50
2022/09/10 10:32:25;;;;;;;;;;;17.10;99.90;;;;;;5057749;28;19912;-53
2022/09/10 10:35:22;;;;;;;;;;;17.10;99.90;;;;;;5074274;28;20256;-52
2022/09/10 10:38:06;;;;;;;;;;;16.90;99.90;;;;;;5050004;28;20215;-55
2022/09/10 10:40:33;;;;;;;;;;;16.90;99.90;;;;;;5058258;28;19919;-53
2022/09/10 10:43:23;;;;;;;;;;;16.90;99.90;;;;;;5058198;28;19908;-53
2022/09/10 10:45:55;;;;;;;;;;;17.00;99.90;;;;;;5039587;28;19909;-53
2022/09/10 10:48:39;;;;;;;;;;;17.00;99.90;;;;;;5058089;28;19913;-54
2022/09/10 10:51:10;;;;;;;;;;;17.00;99.90;;;;;;5058420;28;20204;-55
2022/09/10 10:53:45;;;;;;;;;;;17.00;99.90;;;;;;5057572;28;19999;-53
2022/09/10 10:56:29;;;;;;;;;;;17.00;99.90;;;;;;5073903;28;20062;-55
2022/09/10 10:58:58;;;;;;;;;;;17.00;99.90;;;;;;5058238;28;20020;-54
2022/09/10 11:01:25;;;;;;;;;;;17.00;99.90;;;;;;5057908;28;19916;-53
2022/09/10 11:04:09;;;;;;;;;;;17.20;99.90;;;;;;5058151;28;20192;-55
2022/09/10 11:06:41;;;;;;;;;;;17.20;99.90;;;;;;5057760;28;19919;-54
2022/09/10 11:09:12;;;;;;;;;;;17.10;99.90;;;;;;5057023;28;19913;-54
2022/09/10 11:12:07;;;;;;;;;;;17.10;99.90;;;;;;5057570;28;19967;-53
2022/09/10 11:14:36;;;;;;;;;;;17.10;99.90;;;;;;5049081;28;19916;-54
2022/09/10 11:17:04;;;;;;;;;;;17.20;99.90;;;;;;5057707;28;19919;-54
2022/09/10 11:19:37;;;;;;;;;;;17.20;99.90;;;;;;5056798;28;19916;-54
2022/09/10 11:22:13;;;;;;;;;;;17.10;99.90;;;;;;5057599;28;19909;-53
2022/09/10 11:24:43;;;;;;;;;;;17.20;99.90;;;;;;5057799;28;19997;-53
2022/09/10 11:27:15;;;;;;;;;;;17.10;99.90;;;;;;5057954;28;19915;-54
2022/09/10 11:29:54;;;;;;;;;;;17.20;99.90;;;;;;5057335;28;19955;-54
2022/09/10 11:32:25;;;;;;;;;;;17.10;99.90;;;;;;5057404;28;19955;-55
2022/09/10 11:34:52;;;;;;;;;;;17.20;99.90;;;;;;5057407;28;19915;-54
2022/09/10 11:37:35;;;;;;;;;;;17.20;99.90;;;;;;5057590;28;19925;-55
2022/09/10 11:40:04;;;;;;;;;;;17.30;99.90;;;;;;5073191;28;19909;-55
2022/09/10 11:42:39;;;;;;;;;;;17.40;99.90;;;;;;5057258;28;19967;-55
2022/09/10 11:45:05;;;;;;;;;;;17.40;99.90;;;;;;5057245;28;19916;-54
2022/09/10 11:47:34;;;;;;;;;;;17.50;99.90;;;;;;5057585;28;20208;-55
2022/09/10 11:50:05;;;;;;;;;;;17.50;99.90;;;;;;5057232;28;19909;-55
2022/09/10 11:52:33;;;;;;;;;;;17.40;99.90;;;;;;5057451;28;19943;-54
2022/09/10 11:54:59;;;;;;;;;;;17.40;99.90;;;;;;5057352;28;19905;-56
2022/09/10 11:57:25;;;;;;;;;;;17.40;99.90;;;;;;5056936;28;19921;-55
2022/09/10 11:59:57;;;;;;;;;;;17.40;99.90;;;;;;5057119;28;19909;-56
2022/09/10 12:02:38;;;;;;;;;;;17.50;99.90;;;;;;5057373;28;19912;-54
2022/09/10 12:05:03;;;;;;;;;;;17.40;99.90;;;;;;5073029;28;20245;-55
2022/09/10 12:07:48;;;;;;;;;;;17.30;99.90;;;;;;5060859;28;19952;-56
2022/09/10 12:10:18;;;;;;;;;;;17.20;99.90;;;;;;5061206;28;19939;-56
2022/09/10 12:12:48;;;;;;;;;;;17.40;99.90;;;;;;5061044;28;19909;-54
2022/09/10 12:15:21;;;;;;;;;;;17.50;99.90;;;;;;5060151;28;19909;-56
2022/09/10 12:17:59;;;;;;;;;;;17.40;99.90;;;;;;5061185;28;19962;-57
2022/09/10 12:20:38;;;;;;;;;;;17.50;99.90;;;;;;5061206;28;20239;-57
2022/09/10 12:23:03;;;;;;;;;;;17.50;99.90;;;;;;5060945;28;19920;-56
2022/09/10 12:25:30;;;;;;;;;;;17.60;99.90;;;;;;5060821;28;19909;-57
2022/09/10 12:27:58;;;;;;;;;;;17.40;99.90;;;;;;5060464;28;19924;-56
2022/09/10 12:30:23;;;;;;;;;;;17.40;99.90;;;;;;5060705;28;20184;-55
2022/09/10 12:33:12;;;;;;;;;;;17.50;99.90;;;;;;5060719;28;19999;-56
2022/09/10 12:35:44;;;;;;;;;;;17.50;99.90;;;;;;5041476;28;19915;-56
2022/09/10 12:38:28;;;;;;;;;;;17.60;99.90;;;;;;5060507;28;19916;-56
2022/09/10 12:40:55;;;;;;;;;;;17.60;99.90;;;;;;5060485;28;19939;-56
2022/09/10 12:43:43;;;;;;;;;;;17.50;99.90;;;;;;5060376;28;19908;-55
2022/09/10 12:46:09;;;;;;;;;;;17.50;99.90;;;;;;5054908;28;19909;-56
2022/09/10 12:48:40;;;;;;;;;;;17.40;99.90;;;;;;5059566;28;20078;-55
2022/09/10 12:51:17;;;;;;;;;;;17.30;99.90;;;;;;5060893;28;20011;-56
2022/09/10 12:54:02;;;;;;;;;;;17.40;99.90;;;;;;5060199;28;19970;-56
2022/09/10 12:56:46;;;;;;;;;;;17.60;99.90;;;;;;5060516;28;20192;-55
2022/09/10 12:59:13;;;;;;;;;;;17.80;99.90;;;;;;5059944;28;19923;-55
2022/09/10 13:01:40;;;;;;;;;;;18.10;99.90;;;;;;5060603;28;19909;-54
2022/09/10 13:04:18;;;;;;;;;;;18.30;99.90;;;;;;5059986;28;20007;-55
2022/09/10 13:06:46;;;;;;;;;;;18.50;99.90;;;;;;5060106;28;19909;-55
2022/09/10 13:09:38;;;;;;;;;;;18.70;99.90;;;;;;5060114;28;19923;-56
2022/09/10 13:12:13;;;;;;;;;;;19.20;99.90;;;;;;5057893;28;19978;-56
2022/09/10 13:14:44;;;;;;;;;;;19.50;99.90;;;;;;5060112;28;19908;-55
2022/09/10 13:17:29;;;;;;;;;;;19.20;99.90;;;;;;5059990;28;19909;-56
2022/09/10 13:20:11;;;;;;;;;;;19.10;99.90;;;;;;5059934;28;19963;-56
2022/09/10 13:22:56;;;;;;;;;;;19.10;99.90;;;;;;5059910;28;19916;-56
2022/09/10 13:25:31;;;;;;;;;;;19.00;99.90;;;;;;5059629;28;19909;-56
2022/09/10 13:27:57;;;;;;;;;;;19.10;99.90;;;;;;5059676;28;20199;-56
2022/09/10 13:30:23;;;;;;;;;;;19.20;99.90;;;;;;5059699;28;19919;-54
2022/09/10 13:32:51;;;;;;;;;;;19.30;99.90;;;;;;5059546;28;19912;-56
2022/09/10 13:35:18;;;;;;;;;;;19.40;99.90;;;;;;5059687;28;19909;-56
2022/09/10 13:38:02;;;;;;;;;;;19.50;99.90;;;;;;5059741;28;19920;-56
2022/09/10 13:40:31;;;;;;;;;;;19.60;99.90;;;;;;5059337;28;20003;-56
2022/09/10 13:43:05;;;;;;;;;;;19.60;99.90;;;;;;5075244;28;20188;-55
2022/09/10 13:45:37;;;;;;;;;;;19.50;99.90;;;;;;5059277;28;19908;-54
2022/09/10 13:48:23;;;;;;;;;;;19.70;99.90;;;;;;5059302;28;19919;-56
2022/09/10 13:50:58;;;;;;;;;;;19.70;99.90;;;;;;5059115;28;19920;-58
2022/09/10 13:53:26;;;;;;;;;;;20.00;99.90;;;;;;5059075;28;20242;-57
2022/09/10 13:55:55;;;;;;;;;;;20.10;99.90;;;;;;5059115;28;19908;-56
2022/09/10 13:58:27;;;;;;;;;;;20.20;99.90;;;;;;5058986;28;20062;-53
2022/09/10 14:01:05;;;;;;;;;;;20.60;99.90;;;;;;5059081;28;19956;-57
2022/09/10 14:03:32;;;;;;;;;;;20.90;99.90;;;;;;5058934;28;19912;-56
2022/09/10 14:05:57;;;;;;;;;;;21.20;99.90;;;;;;5058920;28;19965;-55
2022/09/10 14:08:34;;;;;;;;;;;21.60;99.90;;;;;;5058720;28;19917;-56
2022/09/10 14:11:06;;;;;;;;;;;22.70;99.90;;;;;;5059093;28;20013;-56
2022/09/10 14:13:31;;;;;;;;;;;24.10;99.90;;;;;;5058882;28;19924;-57
2022/09/10 14:15:58;;;;;;;;;;;25.30;99.90;;;;;;5058048;28;19909;-59
2022/09/10 14:18:30;;;;;;;;;;;27.10;99.90;;;;;;5074722;28;19908;-58
2022/09/10 14:20:57;;;;;;;;;;;28.80;99.90;;;;;;5058591;28;20368;-58
2022/09/10 14:23:22;;;;;;;;;;;29.00;99.90;;;;;;5058537;28;19913;-59
2022/09/10 14:26:06;;;;;;;;;;;27.90;99.90;;;;;;5058355;28;19970;-58
2022/09/10 14:28:32;;;;;;;;;;;28.00;99.90;;;;;;5056785;28;19926;-59
2022/09/10 14:31:21;;;;;;;;;;;29.20;99.90;;;;;;5059436;28;20003;-60
2022/09/10 14:33:47;;;;;;;;;;;30.60;99.90;;;;;;5058206;28;20003;-58